createdAt,value
2022-11-23T00:01:36.159Z,99496.03
2022-11-23T00:04:13.785Z,99488.19
2022-11-23T00:06:41.389Z,99495.28
2022-11-23T00:09:11.149Z,99497.94
2022-11-23T00:11:38.308Z,99496.22
2022-11-23T00:14:05.548Z,99498.13
2022-11-23T00:19:17.181Z,99501.94
2022-11-23T00:21:44.237Z,99500.31
2022-11-23T00:24:13.105Z,99503.09
2022-11-23T00:26:40.838Z,99499.66
2022-11-23T00:29:08.222Z,99500.63
2022-11-23T00:31:35.285Z,99503.34
2022-11-23T00:34:02.529Z,99491.91
2022-11-23T00:36:29.502Z,99503.47
2022-11-23T00:39:00.342Z,99494.75
2022-11-23T00:41:28.580Z,99498.47
2022-11-23T00:43:56.045Z,99503.66
2022-11-23T00:46:26.797Z,99506.91
2022-11-23T00:48:56.400Z,99513.47
2022-11-23T00:51:27.660Z,99518.09
2022-11-23T00:53:55.420Z,99519.16
2022-11-23T00:56:24.444Z,99520.19
2022-11-23T00:58:53.210Z,99521.16
2022-11-23T01:01:25.595Z,99525.88
2022-11-23T01:03:56.325Z,99531.19
2022-11-23T01:06:27.575Z,99533.06
2022-11-23T01:09:00.955Z,99529.66
2022-11-23T01:11:31.121Z,99536.78
2022-11-23T01:13:58.902Z,99539.50
2022-11-23T01:16:32.566Z,99542.34
2022-11-23T01:19:04.621Z,99552.28
2022-11-23T01:21:33.280Z,99557.91
2022-11-23T01:24:04.629Z,99557.97
2022-11-23T01:26:33.379Z,99565.09
2022-11-23T01:29:00.726Z,99565.25
2022-11-23T01:31:28.872Z,99570.69
2022-11-23T01:34:02.160Z,99570.69
2022-11-23T01:36:32.535Z,99581.47
2022-11-23T01:39:01.421Z,99586.94
2022-11-23T01:41:35.003Z,99581.72
2022-11-23T01:44:32.692Z,99586.38
2022-11-23T01:47:02.695Z,99589.19
2022-11-23T01:49:44.129Z,99595.53
2022-11-23T01:52:20.580Z,99591.09
2022-11-23T01:54:55.685Z,99593.06
2022-11-23T01:57:33.145Z,99600.25
2022-11-23T02:00:01.088Z,99599.47
2022-11-23T02:02:30.234Z,99597.19
2022-11-23T02:04:59.467Z,99606.94
2022-11-23T02:07:26.734Z,99603.44
2022-11-23T02:09:53.907Z,99605.50
2022-11-23T02:12:21.111Z,99611.75
2022-11-23T02:14:48.378Z,99621.56
2022-11-23T02:17:19.083Z,99618.19
2022-11-23T02:20:08.793Z,99628.97
2022-11-23T02:23:11.212Z,99636.13
2022-11-23T02:25:45.751Z,99641.59
2022-11-23T02:28:23.457Z,99646.16
2022-11-23T02:30:53.884Z,99649.84
2022-11-23T02:33:25.428Z,99653.59
2022-11-23T02:35:57.014Z,99662.63
2022-11-23T02:38:30.104Z,99666.25
2022-11-23T02:40:58.341Z,99662.81
2022-11-23T02:43:25.732Z,99672.56
2022-11-23T02:46:00.186Z,99679.66
2022-11-23T02:48:27.278Z,99678.03
2022-11-23T02:50:54.835Z,99678.13
2022-11-23T02:53:21.845Z,99681.78
2022-11-23T02:55:49.072Z,99685.41
2022-11-23T02:58:18.452Z,99688.78
2022-11-23T03:00:46.976Z,99696.16
2022-11-23T03:03:15.992Z,99690.19
2022-11-23T03:05:43.204Z,99686.75
2022-11-23T03:08:10.341Z,99687.59
2022-11-23T03:10:39.256Z,99688.53
2022-11-23T03:13:06.347Z,99694.78
2022-11-23T03:15:36.450Z,99701.84
2022-11-23T03:18:05.367Z,99702.75
2022-11-23T03:20:33.167Z,99705.44
2022-11-23T03:23:00.365Z,99709.22
2022-11-23T03:25:27.470Z,99697.94
2022-11-23T03:27:56.967Z,99696.47
2022-11-23T03:30:24.307Z,99694.25
2022-11-23T03:32:51.877Z,99691.81
2022-11-23T03:35:20.323Z,99694.56
2022-11-23T03:38:10.723Z,99697.22
2022-11-23T03:40:38.014Z,99694.63
2022-11-23T03:43:16.406Z,99691.91
2022-11-23T03:45:43.943Z,99691.06
2022-11-23T03:48:11.603Z,99696.25
2022-11-23T03:50:39.899Z,99695.25
2022-11-23T03:53:08.484Z,99694.47
2022-11-23T03:55:35.564Z,99699.75
2022-11-23T03:58:03.628Z,99704.22
2022-11-23T04:00:34.597Z,99696.25
2022-11-23T04:03:02.213Z,99691.91
2022-11-23T04:05:48.112Z,99701.56
2022-11-23T04:08:34.129Z,99695.56
2022-11-23T04:11:07.023Z,99707.03
2022-11-23T04:13:39.026Z,99708.88
2022-11-23T04:16:07.544Z,99707.25
2022-11-23T04:18:34.846Z,99703.97
2022-11-23T04:21:02.359Z,99715.50
2022-11-23T04:23:29.417Z,99712.06
2022-11-23T04:25:58.413Z,99706.03
2022-11-23T04:28:26.196Z,99715.81
2022-11-23T04:30:54.251Z,99714.97
2022-11-23T04:33:21.945Z,99723.06
2022-11-23T04:35:50.287Z,99719.56
2022-11-23T04:38:17.575Z,99724.16
2022-11-23T04:40:48.944Z,99725.25
2022-11-23T04:43:16.230Z,99727.88
2022-11-23T04:45:44.987Z,99726.03
2022-11-23T04:48:21.924Z,99718.25
2022-11-23T04:50:51.935Z,99710.47
2022-11-23T04:53:28.233Z,99725.34
2022-11-23T04:55:55.690Z,99727.34
2022-11-23T04:58:23.943Z,99732.75
2022-11-23T05:00:58.818Z,99737.25
2022-11-23T05:03:27.210Z,99731.19
2022-11-23T05:05:55.482Z,99732.94
2022-11-23T05:08:22.538Z,99733.84
2022-11-23T05:10:55.255Z,99724.25
2022-11-23T05:13:23.175Z,99735.59
2022-11-23T05:15:51.289Z,99729.41
2022-11-23T05:18:24.457Z,99732.19
2022-11-23T05:20:51.771Z,99735.00
2022-11-23T05:23:19.308Z,99732.41
2022-11-23T05:25:47.152Z,99729.06
2022-11-23T05:31:10.505Z,99743.47
2022-11-23T05:33:37.886Z,99738.34
2022-11-23T05:36:09.371Z,99740.03
2022-11-23T05:38:38.844Z,99739.81
2022-11-23T05:41:12.442Z,99746.03
2022-11-23T05:43:42.622Z,99748.69
2022-11-23T05:46:13.450Z,99754.81
2022-11-23T05:48:41.105Z,99754.22
2022-11-23T05:51:10.221Z,99756.91
2022-11-23T05:53:42.454Z,99749.13
2022-11-23T05:56:25.642Z,99758.31
2022-11-23T05:59:05.448Z,99756.66
2022-11-23T06:01:35.506Z,99747.03
2022-11-23T06:04:06.629Z,99746.09
2022-11-23T06:06:39.125Z,99756.75
2022-11-23T06:09:06.273Z,99755.22
2022-11-23T06:11:35.937Z,99771.94
2022-11-23T06:14:13.973Z,99768.34
2022-11-23T06:16:43.047Z,99787.78
2022-11-23T06:19:30.977Z,99797.28
2022-11-23T06:21:59.215Z,99794.53
2022-11-23T06:24:29.875Z,99798.97
2022-11-23T06:27:23.269Z,99802.41
2022-11-23T06:29:51.370Z,99811.28
2022-11-23T06:32:19.538Z,99819.22
2022-11-23T06:34:47.195Z,99836.16
2022-11-23T06:37:14.883Z,99837.00
2022-11-23T06:39:44.915Z,99846.72
2022-11-23T06:45:01.371Z,99856.31
2022-11-23T06:47:29.772Z,99857.31
2022-11-23T06:49:58.665Z,99864.34
2022-11-23T06:52:30.337Z,99865.38
2022-11-23T06:54:58.218Z,99867.19
2022-11-23T06:57:26.053Z,99869.81
2022-11-23T06:59:54.755Z,99881.19
2022-11-23T07:02:28.442Z,99885.63
2022-11-23T07:04:58.056Z,99886.47
2022-11-23T07:07:27.382Z,99894.31
2022-11-23T07:10:09.924Z,99889.91
2022-11-23T07:12:45.214Z,99900.31
2022-11-23T07:15:15.089Z,99899.47
2022-11-23T07:17:44.641Z,99902.13
2022-11-23T07:20:13.214Z,99913.56
2022-11-23T07:22:41.523Z,99908.25
2022-11-23T07:25:09.418Z,99908.22
2022-11-23T07:27:37.225Z,99911.66
2022-11-23T07:30:06.291Z,99910.72
2022-11-23T07:32:34.078Z,99899.19
2022-11-23T07:35:01.075Z,99910.63
2022-11-23T07:37:29.902Z,99911.34
2022-11-23T07:39:58.735Z,99916.63
2022-11-23T07:42:34.631Z,99922.78
2022-11-23T07:45:05.023Z,99935.94
2022-11-23T07:47:32.832Z,99937.63
2022-11-23T07:49:59.864Z,99945.53
2022-11-23T07:52:27.114Z,99933.06
2022-11-23T07:54:54.154Z,99939.09
2022-11-23T07:57:21.200Z,99943.44
2022-11-23T07:59:48.186Z,99948.59
2022-11-23T08:02:15.880Z,99954.66
2022-11-23T08:04:43.291Z,99956.28
2022-11-23T08:07:10.976Z,99954.38
2022-11-23T08:09:38.701Z,99957.81
2022-11-23T08:12:06.899Z,99955.06
2022-11-23T08:14:34.421Z,99958.38
2022-11-23T08:17:01.863Z,99953.78
2022-11-23T08:19:28.848Z,99954.56
2022-11-23T08:21:58.842Z,99957.06
2022-11-23T08:24:26.061Z,99951.63
2022-11-23T08:26:53.138Z,99962.94
2022-11-23T08:29:20.737Z,99961.00
2022-11-23T08:31:47.893Z,99962.63
2022-11-23T08:34:15.013Z,99970.34
2022-11-23T08:36:42.000Z,99980.66
2022-11-23T08:39:11.256Z,99979.66
2022-11-23T08:41:38.828Z,99979.53
2022-11-23T08:44:06.221Z,99983.72
2022-11-23T08:46:33.904Z,99998.63
2022-11-23T08:49:02.057Z,99995.81
2022-11-23T08:51:29.489Z,100006.25
2022-11-23T08:53:56.591Z,100004.53
2022-11-23T08:56:23.663Z,100011.38
2022-11-23T08:58:50.801Z,100006.09
2022-11-23T09:01:18.694Z,100011.19
2022-11-23T09:03:45.908Z,100006.50
2022-11-23T09:06:12.974Z,100007.53
2022-11-23T09:08:40.077Z,99996.78
2022-11-23T09:11:10.355Z,99992.25
2022-11-23T09:13:38.914Z,99986.63
2022-11-23T09:16:07.362Z,99988.03
2022-11-23T09:18:36.187Z,99995.69
2022-11-23T09:21:05.327Z,99997.97
2022-11-23T09:23:32.802Z,100001.06
2022-11-23T09:26:00.968Z,100012.34
2022-11-23T09:28:28.973Z,100013.06
2022-11-23T09:30:57.574Z,100013.69
2022-11-23T09:33:25.553Z,100015.94
2022-11-23T09:36:01.524Z,100012.03
2022-11-23T09:38:51.930Z,100011.88
2022-11-23T09:41:55.919Z,100016.84
2022-11-23T09:44:49.408Z,100017.69
2022-11-23T09:48:21.237Z,100007.63
2022-11-23T09:50:59.065Z,100018.78
2022-11-23T09:54:05.993Z,100018.53
2022-11-23T09:56:36.941Z,100025.56
2022-11-23T09:59:26.280Z,100017.53
2022-11-23T10:01:53.299Z,100022.66
2022-11-23T10:04:20.917Z,100021.47
2022-11-23T10:07:24.468Z,100019.59
2022-11-23T10:10:27.371Z,100016.50
2022-11-23T10:13:15.076Z,100016.97
2022-11-23T10:16:09.989Z,100013.38
2022-11-23T10:18:52.370Z,100008.59
2022-11-23T10:21:51.141Z,100000.28
2022-11-23T10:24:25.106Z,100005.25
2022-11-23T10:26:52.136Z,100008.88
2022-11-23T10:29:35.972Z,100008.44
2022-11-23T10:32:07.416Z,100010.91
2022-11-23T10:35:14.349Z,100007.31
2022-11-23T10:37:41.883Z,100002.44
2022-11-23T10:40:18.316Z,100003.91
2022-11-23T10:42:56.809Z,100009.78
2022-11-23T10:45:28.082Z,100000.00
2022-11-23T10:48:00.342Z,100003.84
2022-11-23T10:50:37.463Z,99997.63
2022-11-23T10:53:10.192Z,100006.78
2022-11-23T10:55:55.020Z,100003.75
2022-11-23T10:58:36.532Z,100004.16
2022-11-23T11:01:08.955Z,100004.16
2022-11-23T11:03:36.053Z,100002.09
2022-11-23T11:06:11.837Z,100009.56
2022-11-23T11:09:10.769Z,100018.63
2022-11-23T11:11:47.248Z,100009.44
2022-11-23T11:14:23.391Z,100009.91
2022-11-23T11:16:52.855Z,100011.44
2022-11-23T11:19:27.078Z,100009.38
2022-11-23T11:21:54.478Z,100001.56
2022-11-23T11:24:38.190Z,100000.72
2022-11-23T11:27:12.830Z,100000.28
2022-11-23T11:29:52.166Z,100002.28
2022-11-23T11:32:51.471Z,100006.09
2022-11-23T11:35:33.704Z,99999.34
2022-11-23T11:38:19.147Z,99992.75
2022-11-23T11:40:51.762Z,99991.63
2022-11-23T11:43:37.876Z,100000.94
2022-11-23T11:46:29.916Z,99991.53
2022-11-23T11:49:15.951Z,99988.56
2022-11-23T11:51:59.708Z,99983.63
2022-11-23T11:54:56.618Z,99981.03
2022-11-23T11:58:08.481Z,99983.84
2022-11-23T12:00:43.663Z,99976.25
2022-11-23T12:03:43.178Z,99980.72
2022-11-23T12:06:38.232Z,99969.16
2022-11-23T12:09:24.287Z,99966.09
2022-11-23T12:11:52.643Z,99963.03
2022-11-23T12:14:20.913Z,99960.16
2022-11-23T12:17:17.320Z,99949.94
2022-11-23T12:20:01.256Z,99952.88
2022-11-23T12:22:59.261Z,99960.03
2022-11-23T12:25:38.282Z,99961.41
2022-11-23T12:29:02.301Z,99953.00
2022-11-23T12:31:48.246Z,99952.38
2022-11-23T12:34:52.629Z,99958.91
2022-11-23T12:37:40.808Z,99952.59
2022-11-23T12:40:29.753Z,99963.91
2022-11-23T12:43:24.619Z,99963.19
2022-11-23T12:46:28.646Z,99963.91
2022-11-23T12:49:08.380Z,99952.31
2022-11-23T12:51:41.137Z,99958.81
2022-11-23T12:54:24.687Z,99960.84
2022-11-23T12:57:20.745Z,99956.06
2022-11-23T12:59:59.859Z,99956.91
2022-11-23T13:02:48.975Z,99954.03
2022-11-23T13:05:39.942Z,99956.91
2022-11-23T13:08:15.681Z,99955.38
2022-11-23T13:11:05.954Z,99950.72
2022-11-23T13:13:49.395Z,99949.84
2022-11-23T13:16:34.522Z,99944.28
2022-11-23T13:19:40.803Z,99944.91
2022-11-23T13:22:18.133Z,99947.38
2022-11-23T13:25:03.259Z,99950.59
2022-11-23T13:27:50.229Z,99952.06
2022-11-23T13:31:07.419Z,99951.53
2022-11-23T13:33:32.884Z,99953.97
2022-11-23T13:36:09.547Z,99949.38
2022-11-23T13:38:43.866Z,99955.56
2022-11-23T13:41:37.697Z,99949.69
2022-11-23T13:44:26.186Z,99948.59
2022-11-23T13:47:07.909Z,99953.63
2022-11-23T13:49:51.940Z,99959.81
2022-11-23T13:52:22.435Z,99952.56
2022-11-23T13:55:05.645Z,99957.69
2022-11-23T13:57:42.378Z,99958.19
2022-11-23T14:00:57.340Z,99950.72
2022-11-23T14:03:42.976Z,99964.91
2022-11-23T14:06:54.660Z,99954.22
2022-11-23T14:09:35.568Z,99962.03
2022-11-23T14:12:29.479Z,99968.22
2022-11-23T14:15:07.913Z,99975.38
2022-11-23T14:18:20.776Z,99968.97
2022-11-23T14:21:26.899Z,99976.09
2022-11-23T14:24:34.534Z,99968.34
2022-11-23T14:27:47.214Z,99972.19
2022-11-23T14:31:12.370Z,99975.19
2022-11-23T14:34:10.184Z,99976.25
2022-11-23T14:37:01.295Z,99985.47
2022-11-23T14:40:03.999Z,99978.66
2022-11-23T14:42:33.477Z,99973.63
2022-11-23T14:45:05.482Z,99975.88
2022-11-23T14:47:32.809Z,99979.72
2022-11-23T14:49:59.888Z,99977.38
2022-11-23T14:52:31.435Z,99973.22
2022-11-23T14:55:02.432Z,99982.41
2022-11-23T14:57:43.749Z,99979.31
2022-11-23T15:00:38.375Z,99990.28
2022-11-23T15:06:14.591Z,99985.84
2022-11-23T15:08:53.856Z,99997.03
2022-11-23T15:11:27.807Z,99994.78
2022-11-23T15:13:58.094Z,100000.63
2022-11-23T15:16:26.483Z,100003.84
2022-11-23T15:18:53.739Z,100005.31
2022-11-23T15:21:27.862Z,100013.72
2022-11-23T15:23:58.048Z,100005.47
2022-11-23T15:29:33.631Z,100012.25
2022-11-23T15:34:51.086Z,100018.59
2022-11-23T15:37:19.098Z,100018.16
2022-11-23T15:39:46.909Z,100022.06
2022-11-23T15:42:25.180Z,100023.22
2022-11-23T15:47:40.033Z,100024.19
2022-11-23T15:50:10.185Z,100027.25
2022-11-23T15:52:38.192Z,100026.91
2022-11-23T15:54:53.501Z,100014.84
2022-11-23T15:55:11.568Z,100031.75
2022-11-23T15:57:40.323Z,100030.31
2022-11-23T16:00:12.628Z,100030.72
2022-11-23T16:02:39.833Z,100029.38
2022-11-23T16:05:22.606Z,100034.13
2022-11-23T16:08:02.245Z,100032.50
2022-11-23T16:10:32.397Z,100031.94
2022-11-23T16:13:03.179Z,100033.94
2022-11-23T16:15:44.456Z,100035.06
2022-11-23T16:18:25.685Z,100030.03
2022-11-23T16:21:07.062Z,100030.22
2022-11-23T16:23:54.405Z,100027.88
2022-11-23T16:26:30.235Z,100037.06
2022-11-23T16:28:59.819Z,100032.22
2022-11-23T16:31:40.429Z,100028.19
2022-11-23T16:34:16.689Z,100030.28
2022-11-23T16:36:43.911Z,100035.00
2022-11-23T16:39:11.867Z,100039.59
2022-11-23T16:41:40.395Z,100037.97
2022-11-23T16:44:07.490Z,100044.31
2022-11-23T16:46:37.946Z,100040.19
2022-11-23T16:49:17.797Z,100042.28
2022-11-23T16:51:46.147Z,100041.50
2022-11-23T16:54:15.235Z,100047.78
2022-11-23T16:56:45.393Z,100045.38
2022-11-23T16:59:18.574Z,100053.53
2022-11-23T17:01:53.961Z,100051.06
2022-11-23T17:04:26.195Z,100061.91
2022-11-23T17:06:53.366Z,100060.44
2022-11-23T17:09:20.474Z,100049.09
2022-11-23T17:11:50.903Z,100057.16
2022-11-23T17:14:19.537Z,100062.56
2022-11-23T17:16:47.853Z,100068.13
2022-11-23T17:19:18.796Z,100069.25
2022-11-23T17:21:46.834Z,100069.34
2022-11-23T17:24:14.618Z,100064.09
2022-11-23T17:26:53.781Z,100079.38
2022-11-23T17:29:21.633Z,100093.50
2022-11-23T17:31:50.680Z,100097.19
2022-11-23T17:34:18.225Z,100103.72
2022-11-23T17:36:47.626Z,100111.88
2022-11-23T17:39:21.436Z,100114.75
2022-11-23T17:41:48.784Z,100116.56
2022-11-23T17:44:17.925Z,100115.81
2022-11-23T17:46:47.641Z,100116.81
2022-11-23T17:49:19.403Z,100123.94
2022-11-23T17:51:46.628Z,100120.66
2022-11-23T17:54:13.658Z,100133.16
2022-11-23T17:56:40.697Z,100135.91
2022-11-23T17:59:08.212Z,100137.72
2022-11-23T18:01:35.324Z,100147.50
2022-11-23T18:04:04.962Z,100152.03
2022-11-23T18:06:32.125Z,100142.41
2022-11-23T18:08:59.550Z,100138.06
2022-11-23T18:11:28.557Z,100153.13
2022-11-23T18:13:55.604Z,100164.84
2022-11-23T18:16:23.277Z,100165.03
2022-11-23T18:18:51.335Z,100167.69
2022-11-23T18:21:19.517Z,100174.88
2022-11-23T18:23:47.306Z,100173.16
2022-11-23T18:26:16.499Z,100174.94
2022-11-23T18:28:43.847Z,100171.41
2022-11-23T18:31:11.229Z,100183.94
2022-11-23T18:33:39.375Z,100180.50
2022-11-23T18:36:07.280Z,100196.53
2022-11-23T18:38:35.047Z,100202.06
2022-11-23T18:41:02.250Z,100204.09
2022-11-23T18:43:29.243Z,100209.56
2022-11-23T18:45:57.254Z,100208.69
2022-11-23T18:48:24.424Z,100216.66
2022-11-23T18:50:51.680Z,100215.91
2022-11-23T18:53:19.190Z,100218.59
2022-11-23T18:55:46.246Z,100214.25
2022-11-23T18:58:13.663Z,100209.94
2022-11-23T19:00:41.267Z,100211.75
2022-11-23T19:03:08.320Z,100217.16
2022-11-23T19:05:37.893Z,100229.63
2022-11-23T19:08:08.099Z,100223.53
2022-11-23T19:10:38.857Z,100230.56
2022-11-23T19:13:06.348Z,100232.38
2022-11-23T19:15:34.390Z,100219.25
2022-11-23T19:18:03.664Z,100240.50
2022-11-23T19:20:31.020Z,100240.50
2022-11-23T19:22:58.284Z,100250.22
2022-11-23T19:25:25.806Z,100257.28
2022-11-23T19:27:53.323Z,100257.31
2022-11-23T19:30:20.661Z,100260.22
2022-11-23T19:32:47.635Z,100266.53
2022-11-23T19:35:14.787Z,100265.75
2022-11-23T19:37:41.784Z,100279.00
2022-11-23T19:40:09.446Z,100278.41
2022-11-23T19:42:36.924Z,100275.75
2022-11-23T19:45:05.048Z,100276.84
2022-11-23T19:47:32.090Z,100283.19
2022-11-23T19:49:59.369Z,100288.50
2022-11-23T19:52:55.426Z,100287.75
2022-11-23T19:55:17.475Z,100292.09
2022-11-23T19:57:44.547Z,100292.19
2022-11-23T20:00:12.712Z,100301.16
2022-11-23T20:02:39.731Z,100303.00
2022-11-23T20:05:08.122Z,100307.38
2022-11-23T20:07:35.195Z,100302.06
2022-11-23T20:10:03.171Z,100313.56
2022-11-23T20:12:30.319Z,100313.72
2022-11-23T20:14:57.950Z,100313.75
2022-11-23T20:17:24.974Z,100314.75
2022-11-23T20:19:53.220Z,100314.06
2022-11-23T20:22:20.661Z,100307.03
2022-11-23T20:24:48.507Z,100305.25
2022-11-23T20:27:16.143Z,100313.16
2022-11-23T20:29:43.492Z,100313.16
2022-11-23T20:32:12.597Z,100320.16
2022-11-23T20:34:39.664Z,100324.53
2022-11-23T20:37:06.731Z,100314.75
2022-11-23T20:39:33.908Z,100318.31
2022-11-23T20:42:01.922Z,100313.00
2022-11-23T20:44:33.648Z,100318.31
2022-11-23T20:47:03.117Z,100319.22
2022-11-23T20:49:31.652Z,100315.66
2022-11-23T20:52:02.306Z,100317.38
2022-11-23T20:54:29.464Z,100313.75
2022-11-23T20:57:00.111Z,100321.72
2022-11-23T20:59:27.789Z,100312.75
2022-11-23T21:01:55.885Z,100325.09
2022-11-23T21:04:23.143Z,100335.78
2022-11-23T21:06:50.138Z,100333.13
2022-11-23T21:09:17.438Z,100335.78
2022-11-23T21:12:03.684Z,100342.03
2022-11-23T21:14:32.938Z,100337.59
2022-11-23T21:17:01.664Z,100335.69
2022-11-23T21:19:29.732Z,100328.59
2022-11-23T21:21:58.287Z,100333.84
2022-11-23T21:24:25.835Z,100332.00
2022-11-23T21:26:54.525Z,100347.03
2022-11-23T21:29:22.056Z,100348.09
2022-11-23T21:31:50.167Z,100349.09
2022-11-23T21:34:23.468Z,100338.63
2022-11-23T21:36:52.568Z,100348.53
2022-11-23T21:39:20.526Z,100345.97
2022-11-23T21:41:51.361Z,100354.88
2022-11-23T21:44:18.720Z,100360.22
2022-11-23T21:46:46.024Z,100371.78
2022-11-23T21:49:13.201Z,100376.22
2022-11-23T21:51:43.763Z,100370.13
2022-11-23T21:54:14.314Z,100361.31
2022-11-23T21:56:46.560Z,100368.47
2022-11-23T21:59:14.626Z,100365.97
2022-11-23T22:01:43.237Z,100367.84
2022-11-23T22:04:15.630Z,100358.94
2022-11-23T22:06:45.290Z,100371.19
2022-11-23T22:09:13.548Z,100374.63
2022-11-23T22:11:43.459Z,100371.91
2022-11-23T22:14:13.697Z,100373.63
2022-11-23T22:16:47.294Z,100371.78
2022-11-23T22:19:16.157Z,100375.44
2022-11-23T22:21:45.170Z,100371.91
2022-11-23T22:24:18.502Z,100362.22
2022-11-23T22:26:46.463Z,100364.88
2022-11-23T22:29:14.131Z,100363.16
2022-11-23T22:31:43.754Z,100368.59
2022-11-23T22:34:13.555Z,100370.63
2022-11-23T22:36:41.059Z,100374.41
2022-11-23T22:39:08.571Z,100379.00
2022-11-23T22:41:39.295Z,100387.09
2022-11-23T22:44:10.079Z,100388.94
2022-11-23T22:46:38.905Z,100392.53
2022-11-23T22:49:06.387Z,100396.03
2022-11-23T22:51:33.496Z,100396.13
2022-11-23T22:54:01.198Z,100409.38
2022-11-23T22:56:29.389Z,100412.16
2022-11-23T22:58:56.875Z,100410.41
2022-11-23T23:01:27.725Z,100405.19
2022-11-23T23:03:57.505Z,100412.34
2022-11-23T23:06:29.100Z,100413.50
2022-11-23T23:08:59.210Z,100411.88
2022-11-23T23:11:29.880Z,100417.31
2022-11-23T23:13:58.112Z,100420.91
2022-11-23T23:16:26.762Z,100428.00
2022-11-23T23:18:58.103Z,100429.00
2022-11-23T23:21:28.079Z,100428.19
2022-11-23T23:23:58.634Z,100428.25
2022-11-23T23:26:27.261Z,100436.13
2022-11-23T23:28:57.349Z,100442.31
2022-11-23T23:31:26.625Z,100450.31
2022-11-23T23:33:54.567Z,100452.09
2022-11-23T23:36:23.778Z,100447.78
2022-11-23T23:38:51.193Z,100447.94
2022-11-23T23:41:18.357Z,100447.16
2022-11-23T23:43:45.483Z,100457.75
2022-11-23T23:46:13.654Z,100468.34
2022-11-23T23:48:41.234Z,100471.84
2022-11-23T23:51:20.299Z,100474.66
2022-11-23T23:53:47.875Z,100484.41
2022-11-23T23:56:18.470Z,100478.34
2022-11-23T23:58:45.835Z,100486.28
